Terminal Aerodrome Forecast
Issued by NWS Riverton, WY

Home | Current Version | Previous Version | Text Only | Print | Product List | Glossary On
Versions: 1 2 3 4 5 6 7 8 9 10 11 12
709
FTUS45 KRIW 101126
TAFRIW
TAF
KRIW 101126Z 1012/1112 28007KT P6SM SKC
     FM101400 VRB04KT P6SM SCT250
     FM110400 28007KT P6SM BKN250=

USA.gov is the U.S. government's official web portal to all federal, state and local government web resources and services.